KVCT/VCT METAR and TAF weather

Enter ICAO airport designator
Station Type Date Time Source
KVCT METAR 2019/06/16 19:51 UTC NOAA

KVCT 161951Z 17018KT 10SM FEW034 SCT044 33/24 A2984 RMK AO2 PK WND 16026/1924 SLP100 T03280239 $


Station Type Date Time Source
KVCT Decoded METAR 2019/06/16 19:51 UTC NOAA

VICTORIA REGIONAL AIRPORT, TX, United States (KVCT) 28-52N 96-56W 31M
Jun 16, 2019 - 03:51 PM EDT / 2019.06.16 1951 UTC
Wind: from the S (170 degrees) at 21 MPH (18 KT):0
Visibility: 10 mile(s):0
Sky conditions: partly cloudy
Temperature: 91.0 F (32.8 C)
Heat index: 101.5 F (38.6 C):1
Dew Point: 75.0 F (23.9 C)
Relative Humidity: 59%
Pressure (altimeter): 29.84 in. Hg (1010 hPa)
ob: KVCT 161951Z 17018KT 10SM FEW034 SCT044 33/24 A2984 RMK AO2 PK WND 16026/1924 SLP100 T03280239
cycle: 20

Station Type Date Time Source
KVCT TAF 2019/06/16 18:42 UTC NOAA

TAF KVCT 161739Z 1618/1718 17018G22KT P6SM VCTS BKN040CB
FM170100 15011KT P6SM SCT030 BKN250
FM170500 15008KT P6SM VCTS BKN025CB
TEMPO 1705/1709 VRB30G40KT 2SM TSRA BKN020CB
FM171400 18011KT P6SM SHRA BKN020 BKN150

Example: see airport list